Terminal Aerodrome Forecast
Issued by NWS Grand Junction, CO

Home | Current Version | Previous Version | Text Only | Print | Product List | Glossary On
Versions: 1 2 3 4 5 6 7 8 9 10 11 12 13 14 15 16 17 18 19 20 21 22 23 24 25 26 27 28 29 30 31 32 33 34 35 36
000
FTUS45 KGJT 221735
TAFGJT
TAF
KGJT 221735Z 2218/2318 15008KT P6SM FEW110 SCT200
     FM222000 24008KT P6SM FEW110 SCT200
     FM230100 13005KT P6SM BKN150
     FM230600 11007KT P6SM SCT150=

USA.gov is the U.S. government's official web portal to all federal, state and local government web resources and services.